Time;durP1;ratioP1;P1;durP2;ratioP2;P2;SDS_P1;SDS_P2;PMS_P1;PMS_P2;Temp;Humidity;BMP_temperature;BMP_pressure;BME280_temperature;BME280_humidity;BME280_pressure;Samples;Min_cycle;Max_cycle;Signal;HPM_P1;HPM_P2
2022/01/01 00:00:33;;;;;;;;;;;21.10;56.30;;;;;;5037650;28;19941;-68
2022/01/01 00:02:59;;;;;;;;;;;21.10;56.30;;;;;;5041181;28;19924;-68
2022/01/01 00:05:25;;;;;;;;;;;21.00;56.30;;;;;;5040150;28;20007;-67
2022/01/01 00:07:51;;;;;;;;;;;21.00;56.30;;;;;;5036579;28;20531;-65
2022/01/01 00:10:18;;;;;;;;;;;21.00;56.30;;;;;;5038990;28;20328;-67
2022/01/01 00:12:46;;;;;;;;;;;21.10;56.30;;;;;;5038524;28;20637;-68
2022/01/01 00:15:12;;;;;;;;;;;21.00;56.30;;;;;;5037240;28;19913;-67
2022/01/01 00:17:37;;;;;;;;;;;21.00;56.30;;;;;;5037383;28;19913;-67
2022/01/01 00:20:03;;;;;;;;;;;21.00;56.30;;;;;;5040309;28;19923;-67
2022/01/01 00:22:29;;;;;;;;;;;21.10;56.30;;;;;;5038209;28;20583;-68
2022/01/01 00:24:55;;;;;;;;;;;21.00;56.30;;;;;;5040590;28;19955;-67
2022/01/01 00:27:20;;;;;;;;;;;21.00;56.30;;;;;;5038308;28;19923;-68
2022/01/01 00:29:45;;;;;;;;;;;21.00;56.30;;;;;;5042431;28;19985;-68
2022/01/01 00:32:11;;;;;;;;;;;21.00;56.30;;;;;;5039399;28;20046;-67
2022/01/01 00:34:37;;;;;;;;;;;21.00;56.30;;;;;;5038657;28;20664;-67
2022/01/01 00:37:03;;;;;;;;;;;21.00;56.30;;;;;;5033479;28;19928;-67
2022/01/01 00:39:28;;;;;;;;;;;21.00;56.30;;;;;;5039768;28;19912;-65
2022/01/01 00:41:53;;;;;;;;;;;21.00;56.30;;;;;;5040944;28;19991;-67
2022/01/01 00:44:19;;;;;;;;;;;21.00;56.30;;;;;;5040181;28;20080;-68
2022/01/01 00:46:44;;;;;;;;;;;21.00;56.30;;;;;;5037473;28;20633;-67
2022/01/01 00:49:10;;;;;;;;;;;21.00;56.30;;;;;;5039135;28;19917;-66
2022/01/01 00:51:35;;;;;;;;;;;21.00;56.30;;;;;;5032944;28;20011;-65
2022/01/01 00:54:01;;;;;;;;;;;21.00;56.30;;;;;;5038259;28;19923;-65
2022/01/01 00:56:26;;;;;;;;;;;21.00;56.30;;;;;;5040200;28;19917;-65
2022/01/01 00:58:52;;;;;;;;;;;21.00;56.30;;;;;;5036916;28;19917;-65
2022/01/01 01:01:17;;;;;;;;;;;21.00;56.30;;;;;;5040328;28;19921;-67
2022/01/01 01:03:43;;;;;;;;;;;21.00;56.30;;;;;;5039053;28;19923;-66
2022/01/01 01:06:10;;;;;;;;;;;20.90;56.20;;;;;;5041414;28;19962;-68
2022/01/01 01:08:36;;;;;;;;;;;21.00;56.30;;;;;;5038800;28;19917;-66
2022/01/01 01:11:06;;;;;;;;;;;21.00;56.30;;;;;;5038693;28;19909;-66
2022/01/01 01:13:33;;;;;;;;;;;21.00;56.30;;;;;;5040470;28;20058;-66
2022/01/01 01:15:58;;;;;;;;;;;20.90;56.20;;;;;;5044368;28;19923;-66
2022/01/01 01:18:24;;;;;;;;;;;20.90;56.20;;;;;;5042282;28;19935;-66
2022/01/01 01:20:49;;;;;;;;;;;20.90;56.20;;;;;;5043886;28;19916;-65
2022/01/01 01:23:15;;;;;;;;;;;21.00;56.30;;;;;;5039228;28;19916;-67
2022/01/01 01:25:41;;;;;;;;;;;20.90;56.20;;;;;;5040675;28;19956;-65
2022/01/01 01:28:10;;;;;;;;;;;20.90;56.20;;;;;;5038933;28;19915;-65
2022/01/01 01:30:37;;;;;;;;;;;20.90;56.20;;;;;;5043604;28;20376;-69
2022/01/01 01:33:03;;;;;;;;;;;20.90;56.20;;;;;;5041527;28;19901;-66
2022/01/01 01:35:29;;;;;;;;;;;20.90;56.20;;;;;;5039275;28;19920;-68
2022/01/01 01:37:55;;;;;;;;;;;20.90;56.20;;;;;;5041186;28;19936;-66
2022/01/01 01:40:20;;;;;;;;;;;20.90;56.20;;;;;;5040121;28;19917;-66
2022/01/01 01:42:46;;;;;;;;;;;20.90;56.20;;;;;;5042995;28;19905;-66
2022/01/01 01:45:16;;;;;;;;;;;20.90;56.20;;;;;;5042655;28;19998;-64
2022/01/01 01:47:42;;;;;;;;;;;20.90;56.20;;;;;;5036930;28;19912;-66
2022/01/01 01:50:10;;;;;;;;;;;20.90;56.20;;;;;;5038499;28;19963;-65
2022/01/01 01:52:37;;;;;;;;;;;20.90;56.20;;;;;;5038094;28;19914;-69
2022/01/01 01:55:07;;;;;;;;;;;20.90;56.30;;;;;;5042255;28;19908;-64
2022/01/01 01:57:36;;;;;;;;;;;20.90;56.20;;;;;;5038529;28;19936;-65
2022/01/01 02:00:03;;;;;;;;;;;20.90;56.20;;;;;;5044622;28;20361;-66
2022/01/01 02:02:29;;;;;;;;;;;20.90;56.20;;;;;;5036821;28;19921;-68
2022/01/01 02:04:54;;;;;;;;;;;20.90;56.20;;;;;;5043343;28;20473;-65
2022/01/01 02:07:20;;;;;;;;;;;20.90;56.20;;;;;;5039554;28;19916;-68
2022/01/01 02:09:45;;;;;;;;;;;20.90;56.20;;;;;;5044831;28;20742;-65
2022/01/01 02:12:11;;;;;;;;;;;20.90;56.20;;;;;;5041776;28;20018;-65
2022/01/01 02:17:14;;;;;;;;;;;20.80;56.20;;;;;;5042361;28;19928;-64
2022/01/01 02:19:43;;;;;;;;;;;20.90;56.20;;;;;;5044211;28;20388;-65
2022/01/01 02:22:10;;;;;;;;;;;20.90;56.20;;;;;;5034662;28;19913;-67
2022/01/01 02:24:36;;;;;;;;;;;20.80;56.20;;;;;;5036995;28;19917;-67
2022/01/01 02:27:02;;;;;;;;;;;20.80;56.20;;;;;;5040958;28;20391;-66
2022/01/01 02:29:27;;;;;;;;;;;20.80;56.70;;;;;;5043814;28;19945;-67
2022/01/01 02:31:53;;;;;;;;;;;20.80;56.20;;;;;;5044889;28;19913;-67
2022/01/01 02:34:22;;;;;;;;;;;20.80;56.20;;;;;;5046278;28;19928;-68
2022/01/01 02:36:47;;;;;;;;;;;20.80;56.20;;;;;;5041060;28;19917;-66
2022/01/01 02:39:14;;;;;;;;;;;20.80;56.20;;;;;;5045105;28;19967;-65
2022/01/01 02:41:40;;;;;;;;;;;20.80;56.20;;;;;;5039798;28;19928;-66
2022/01/01 02:44:09;;;;;;;;;;;20.80;56.20;;;;;;5042473;28;19932;-66
2022/01/01 02:46:35;;;;;;;;;;;20.80;56.20;;;;;;5044542;28;19912;-66
2022/01/01 02:49:00;;;;;;;;;;;20.80;56.20;;;;;;5043291;28;19917;-66
2022/01/01 02:51:26;;;;;;;;;;;20.80;56.20;;;;;;5037778;28;19909;-68
2022/01/01 02:53:51;;;;;;;;;;;20.80;56.20;;;;;;5043032;28;20364;-66
2022/01/01 02:56:17;;;;;;;;;;;20.80;56.20;;;;;;5042430;28;19913;-66
2022/01/01 02:58:43;;;;;;;;;;;20.80;56.20;;;;;;5038553;28;19947;-69
2022/01/01 03:01:09;;;;;;;;;;;20.80;56.20;;;;;;5037148;28;19957;-65
2022/01/01 03:03:36;;;;;;;;;;;20.80;56.20;;;;;;5037585;28;19933;-66
2022/01/01 03:06:01;;;;;;;;;;;20.80;56.30;;;;;;5041093;28;19966;-65
2022/01/01 03:08:27;;;;;;;;;;;20.80;56.30;;;;;;5040969;28;19955;-69
2022/01/01 03:10:52;;;;;;;;;;;20.80;56.20;;;;;;5036684;28;19909;-65
2022/01/01 03:13:18;;;;;;;;;;;20.80;56.20;;;;;;5043482;28;19913;-64
2022/01/01 03:15:43;;;;;;;;;;;20.80;56.20;;;;;;5038252;28;19917;-64
2022/01/01 03:18:09;;;;;;;;;;;20.80;56.20;;;;;;5040755;28;19943;-65
2022/01/01 03:20:35;;;;;;;;;;;20.70;56.20;;;;;;5038022;28;19913;-69
2022/01/01 03:23:00;;;;;;;;;;;20.80;56.20;;;;;;5039437;28;19916;-66
2022/01/01 03:25:25;;;;;;;;;;;20.70;56.20;;;;;;5036716;28;20348;-68
2022/01/01 03:27:51;;;;;;;;;;;20.80;56.30;;;;;;5037970;28;19913;-68
2022/01/01 03:30:16;;;;;;;;;;;20.80;56.30;;;;;;5038490;28;19916;-68
2022/01/01 03:32:42;;;;;;;;;;;20.70;56.20;;;;;;5043864;28;19947;-65
2022/01/01 03:35:08;;;;;;;;;;;20.80;56.30;;;;;;5042301;28;19908;-64
2022/01/01 03:37:33;;;;;;;;;;;20.80;56.30;;;;;;5039990;28;19916;-67
2022/01/01 03:39:59;;;;;;;;;;;20.70;56.20;;;;;;5040359;28;19912;-64
2022/01/01 03:42:24;;;;;;;;;;;20.70;56.20;;;;;;5039744;28;20686;-65
2022/01/01 03:44:50;;;;;;;;;;;20.70;56.20;;;;;;5043893;28;19913;-69
2022/01/01 03:47:15;;;;;;;;;;;20.70;56.30;;;;;;5041422;28;19919;-66
2022/01/01 03:49:41;;;;;;;;;;;20.70;56.30;;;;;;5037417;28;19920;-66
2022/01/01 03:52:06;;;;;;;;;;;20.70;56.20;;;;;;5042286;28;19939;-69
2022/01/01 03:54:32;;;;;;;;;;;20.70;56.20;;;;;;5041378;28;19913;-65
2022/01/01 03:56:58;;;;;;;;;;;20.70;56.20;;;;;;5041053;28;20376;-68
2022/01/01 03:59:26;;;;;;;;;;;20.70;56.20;;;;;;5042743;28;19908;-65
2022/01/01 04:01:55;;;;;;;;;;;20.70;56.20;;;;;;5041432;28;19921;-69
2022/01/01 04:04:23;;;;;;;;;;;20.70;56.30;;;;;;5041542;28;20351;-69
2022/01/01 04:06:49;;;;;;;;;;;20.70;56.30;;;;;;5040474;28;19916;-65
2022/01/01 04:09:14;;;;;;;;;;;20.70;56.30;;;;;;5042355;28;19909;-64
2022/01/01 04:11:40;;;;;;;;;;;20.70;56.20;;;;;;5042455;28;19916;-66
2022/01/01 04:14:06;;;;;;;;;;;20.70;56.20;;;;;;5039719;28;19951;-67
2022/01/01 04:16:31;;;;;;;;;;;20.70;56.30;;;;;;5039720;28;19917;-68
2022/01/01 04:18:57;;;;;;;;;;;20.70;56.30;;;;;;5042065;28;19935;-64
2022/01/01 04:21:22;;;;;;;;;;;20.70;56.20;;;;;;5042795;28;19909;-66
2022/01/01 04:23:48;;;;;;;;;;;20.70;56.30;;;;;;5039524;28;20344;-66
2022/01/01 04:26:13;;;;;;;;;;;20.70;56.30;;;;;;5043846;28;19975;-68
2022/01/01 04:28:40;;;;;;;;;;;20.70;56.30;;;;;;5043755;28;20085;-65
2022/01/01 04:31:06;;;;;;;;;;;20.70;56.30;;;;;;5038906;28;19998;-68
2022/01/01 04:33:31;;;;;;;;;;;20.70;56.30;;;;;;5042089;28;19912;-66
2022/01/01 04:35:57;;;;;;;;;;;20.70;56.30;;;;;;5042306;28;19924;-68
2022/01/01 04:41:06;;;;;;;;;;;20.70;56.80;;;;;;5043698;28;19967;-66
2022/01/01 04:43:32;;;;;;;;;;;20.70;56.30;;;;;;5034689;28;19921;-68
2022/01/01 04:45:57;;;;;;;;;;;20.70;56.30;;;;;;5036141;28;20280;-66
2022/01/01 04:48:23;;;;;;;;;;;20.70;56.30;;;;;;5030406;28;20014;-67
2022/01/01 04:50:48;;;;;;;;;;;20.60;56.30;;;;;;5037036;28;21660;-64
2022/01/01 04:53:17;;;;;;;;;;;20.60;56.30;;;;;;5034511;28;20371;-68
2022/01/01 04:55:43;;;;;;;;;;;20.70;56.30;;;;;;5038146;28;19956;-64
2022/01/01 04:58:08;;;;;;;;;;;20.60;56.30;;;;;;5033001;28;20015;-65
2022/01/01 05:00:34;;;;;;;;;;;20.70;56.30;;;;;;5029622;28;19981;-66
2022/01/01 05:02:59;;;;;;;;;;;20.60;56.30;;;;;;5037488;28;19928;-64
2022/01/01 05:05:25;;;;;;;;;;;20.70;56.30;;;;;;5044323;28;19935;-66
2022/01/01 05:07:53;;;;;;;;;;;20.60;56.30;;;;;;5041109;28;20874;-64
2022/01/01 05:10:19;;;;;;;;;;;20.70;56.40;;;;;;5043331;28;20007;-68
2022/01/01 05:12:44;;;;;;;;;;;20.60;56.30;;;;;;5041855;28;20375;-66
2022/01/01 05:15:10;;;;;;;;;;;20.60;56.30;;;;;;5027249;28;19995;-68
2022/01/01 05:17:35;;;;;;;;;;;20.60;56.30;;;;;;5034359;28;19997;-65
2022/01/01 05:20:01;;;;;;;;;;;20.60;56.30;;;;;;5041429;28;19916;-65
2022/01/01 05:22:26;;;;;;;;;;;20.60;56.30;;;;;;5039338;28;20568;-65
2022/01/01 05:24:56;;;;;;;;;;;20.60;56.30;;;;;;5039823;28;19928;-66
2022/01/01 05:27:22;;;;;;;;;;;20.60;56.40;;;;;;5037300;28;20005;-66
2022/01/01 05:29:47;;;;;;;;;;;20.60;56.30;;;;;;5040784;28;20691;-68
2022/01/01 05:32:13;;;;;;;;;;;20.60;56.30;;;;;;5042708;28;20298;-68
2022/01/01 05:34:39;;;;;;;;;;;20.60;56.40;;;;;;5041950;28;19919;-64
2022/01/01 05:37:05;;;;;;;;;;;20.60;56.40;;;;;;5037799;28;20007;-66
2022/01/01 05:39:31;;;;;;;;;;;20.60;56.40;;;;;;5036857;28;19908;-64
2022/01/01 05:41:56;;;;;;;;;;;20.60;56.40;;;;;;5040983;28;19985;-65
2022/01/01 05:44:25;;;;;;;;;;;20.60;56.40;;;;;;5038203;28;20711;-66
2022/01/01 05:46:53;;;;;;;;;;;20.60;56.40;;;;;;5038863;28;19970;-66
2022/01/01 05:49:19;;;;;;;;;;;20.60;56.40;;;;;;5043104;28;20026;-68
2022/01/01 05:51:45;;;;;;;;;;;20.60;56.40;;;;;;5040524;28;20020;-66
2022/01/01 05:54:10;;;;;;;;;;;20.60;56.40;;;;;;5043431;28;19913;-68
2022/01/01 05:56:36;;;;;;;;;;;20.60;56.40;;;;;;5042776;28;20463;-66
2022/01/01 05:59:01;;;;;;;;;;;20.60;56.40;;;;;;5041230;28;19959;-69
2022/01/01 06:01:27;;;;;;;;;;;20.60;56.90;;;;;;5033565;28;19920;-64
2022/01/01 06:03:52;;;;;;;;;;;20.60;56.50;;;;;;5042003;28;20000;-67
2022/01/01 06:06:18;;;;;;;;;;;20.60;56.40;;;;;;5040092;28;19913;-66
2022/01/01 06:08:44;;;;;;;;;;;20.60;56.40;;;;;;5038542;28;20023;-65
2022/01/01 06:11:09;;;;;;;;;;;20.60;56.50;;;;;;5039272;28;19912;-65
2022/01/01 06:13:35;;;;;;;;;;;20.60;56.50;;;;;;5042782;28;19915;-66
2022/01/01 06:16:01;;;;;;;;;;;20.50;56.40;;;;;;5034862;28;19924;-69
2022/01/01 06:18:26;;;;;;;;;;;20.60;57.00;;;;;;5042496;28;19909;-64
2022/01/01 06:20:52;;;;;;;;;;;20.60;56.40;;;;;;5036913;28;20264;-67
2022/01/01 06:23:17;;;;;;;;;;;20.60;56.50;;;;;;5032699;28;19912;-66
2022/01/01 06:25:43;;;;;;;;;;;20.60;56.50;;;;;;5034992;28;19913;-66
2022/01/01 06:28:09;;;;;;;;;;;20.60;56.50;;;;;;5033079;28;20007;-67
2022/01/01 06:30:34;;;;;;;;;;;20.60;56.50;;;;;;5034768;28;19932;-66
2022/01/01 06:33:11;;;;;;;;;;;20.50;56.90;;;;;;5031518;28;19913;-67
2022/01/01 06:35:37;;;;;;;;;;;20.60;56.50;;;;;;5038000;28;19920;-64
2022/01/01 06:38:02;;;;;;;;;;;20.60;56.50;;;;;;5039370;28;19920;-64
2022/01/01 06:40:28;;;;;;;;;;;20.50;56.40;;;;;;5039059;28;19961;-68
2022/01/01 06:42:54;;;;;;;;;;;20.60;56.50;;;;;;5037792;28;19924;-65
2022/01/01 06:45:19;;;;;;;;;;;20.50;56.40;;;;;;5039743;28;19913;-66
2022/01/01 06:47:45;;;;;;;;;;;20.50;56.40;;;;;;5031529;28;19924;-65
2022/01/01 06:50:10;;;;;;;;;;;20.50;56.50;;;;;;5037424;28;19934;-67
2022/01/01 06:52:40;;;;;;;;;;;20.50;56.50;;;;;;5032375;28;19924;-64
2022/01/01 06:55:06;;;;;;;;;;;20.50;56.40;;;;;;5039186;28;20320;-67
2022/01/01 06:57:31;;;;;;;;;;;20.50;56.50;;;;;;5038911;28;19964;-63
2022/01/01 06:59:57;;;;;;;;;;;20.50;56.50;;;;;;5041422;28;20324;-69
2022/01/01 07:02:22;;;;;;;;;;;20.50;56.50;;;;;;5030071;28;19925;-67
2022/01/01 07:04:48;;;;;;;;;;;20.50;56.50;;;;;;5030697;28;19936;-64
2022/01/01 07:07:14;;;;;;;;;;;20.50;56.50;;;;;;5036973;28;19912;-65
2022/01/01 07:09:40;;;;;;;;;;;20.50;56.50;;;;;;5039716;28;19905;-66
2022/01/01 07:12:05;;;;;;;;;;;20.50;56.50;;;;;;5031211;28;20485;-65
2022/01/01 07:14:31;;;;;;;;;;;20.50;56.50;;;;;;5039286;28;20002;-67
2022/01/01 07:16:56;;;;;;;;;;;20.50;56.50;;;;;;5030835;28;20327;-68
2022/01/01 07:19:22;;;;;;;;;;;20.50;56.50;;;;;;5034200;28;19943;-67
2022/01/01 07:21:47;;;;;;;;;;;20.50;56.50;;;;;;5025292;28;19913;-64
2022/01/01 07:24:13;;;;;;;;;;;20.50;56.50;;;;;;5034748;28;19912;-66
2022/01/01 07:26:38;;;;;;;;;;;20.50;56.50;;;;;;5034066;28;20820;-68
2022/01/01 07:29:04;;;;;;;;;;;20.50;56.50;;;;;;5043071;28;20012;-63
2022/01/01 07:31:29;;;;;;;;;;;20.50;56.50;;;;;;5031799;28;19971;-66
2022/01/01 07:33:55;;;;;;;;;;;20.50;56.50;;;;;;5028505;28;19913;-66
2022/01/01 07:36:20;;;;;;;;;;;20.50;56.50;;;;;;5036692;28;19921;-68
2022/01/01 07:38:46;;;;;;;;;;;20.50;56.50;;;;;;5039260;28;19928;-64
2022/01/01 07:41:11;;;;;;;;;;;20.50;56.50;;;;;;5040518;28;19942;-64
2022/01/01 07:43:38;;;;;;;;;;;20.50;56.50;;;;;;5038476;28;19905;-68
2022/01/01 07:46:04;;;;;;;;;;;20.50;56.60;;;;;;5038423;28;19913;-65
2022/01/01 07:48:29;;;;;;;;;;;20.50;56.60;;;;;;5041644;28;20363;-69
2022/01/01 07:50:55;;;;;;;;;;;20.50;56.60;;;;;;5036566;28;19919;-68
2022/01/01 07:53:20;;;;;;;;;;;20.50;56.60;;;;;;5027866;28;19990;-64
2022/01/01 07:55:46;;;;;;;;;;;20.50;56.60;;;;;;5035720;28;20345;-64
2022/01/01 07:58:11;;;;;;;;;;;20.50;56.60;;;;;;5036768;28;19921;-65
2022/01/01 08:00:37;;;;;;;;;;;20.50;56.60;;;;;;5025625;28;19965;-66
2022/01/01 08:03:02;;;;;;;;;;;20.50;56.60;;;;;;5041236;28;19993;-66
2022/01/01 08:05:27;;;;;;;;;;;20.50;56.60;;;;;;5044454;28;19970;-66
2022/01/01 08:07:53;;;;;;;;;;;20.40;56.50;;;;;;5041305;28;19996;-67
2022/01/01 08:10:20;;;;;;;;;;;20.40;56.50;;;;;;5044551;28;19919;-66
2022/01/01 08:12:46;;;;;;;;;;;20.40;56.50;;;;;;5043774;28;20369;-64
2022/01/01 08:15:11;;;;;;;;;;;20.40;56.60;;;;;;5035042;28;19916;-66
2022/01/01 08:17:37;;;;;;;;;;;20.40;56.60;;;;;;5039721;28;19932;-68
2022/01/01 08:20:03;;;;;;;;;;;20.40;56.50;;;;;;5037029;28;19954;-66
2022/01/01 08:22:28;;;;;;;;;;;20.40;56.50;;;;;;5032345;28;20239;-69
2022/01/01 08:24:54;;;;;;;;;;;20.40;56.60;;;;;;5037685;28;19913;-66
2022/01/01 08:27:19;;;;;;;;;;;20.40;56.50;;;;;;5033110;28;20598;-68
2022/01/01 08:29:45;;;;;;;;;;;20.40;56.50;;;;;;5040708;28;20023;-66
2022/01/01 08:32:11;;;;;;;;;;;20.40;56.50;;;;;;5039706;28;20015;-65
2022/01/01 08:34:36;;;;;;;;;;;20.40;56.50;;;;;;5040372;28;19982;-64
2022/01/01 08:37:02;;;;;;;;;;;20.40;56.50;;;;;;5037959;28;19967;-69
2022/01/01 08:39:27;;;;;;;;;;;20.40;56.50;;;;;;5042987;28;19919;-64
2022/01/01 08:41:53;;;;;;;;;;;20.40;56.60;;;;;;5034023;28;19912;-67
2022/01/01 08:44:18;;;;;;;;;;;20.40;56.60;;;;;;5029147;28;19917;-66
2022/01/01 08:46:44;;;;;;;;;;;20.40;56.60;;;;;;5036502;28;20007;-66
2022/01/01 08:49:09;;;;;;;;;;;20.40;56.60;;;;;;5034548;28;19979;-67
2022/01/01 08:51:35;;;;;;;;;;;20.40;56.60;;;;;;5031857;28;19957;-67
2022/01/01 08:54:01;;;;;;;;;;;20.40;56.60;;;;;;5036367;28;20237;-67
2022/01/01 08:56:27;;;;;;;;;;;20.40;56.60;;;;;;5026192;28;19939;-69
2022/01/01 08:58:53;;;;;;;;;;;20.40;56.60;;;;;;5025266;28;19923;-68
2022/01/01 09:01:18;;;;;;;;;;;20.40;56.60;;;;;;5031894;28;19924;-67
2022/01/01 09:03:44;;;;;;;;;;;20.40;56.70;;;;;;5040919;28;19916;-66
2022/01/01 09:06:10;;;;;;;;;;;20.40;56.70;;;;;;5039442;28;19916;-68
2022/01/01 09:08:37;;;;;;;;;;;20.40;56.80;;;;;;5034858;28;19913;-66
2022/01/01 09:11:03;;;;;;;;;;;20.40;56.90;;;;;;5031542;28;19917;-67
2022/01/01 09:13:28;;;;;;;;;;;20.40;56.80;;;;;;5029519;28;19917;-66
2022/01/01 09:15:54;;;;;;;;;;;20.40;56.90;;;;;;5039749;28;20023;-64
2022/01/01 09:18:20;;;;;;;;;;;20.40;56.90;;;;;;5040631;28;20042;-68
2022/01/01 09:20:45;;;;;;;;;;;20.40;56.90;;;;;;5035225;28;20345;-67
2022/01/01 09:23:13;;;;;;;;;;;20.40;56.90;;;;;;5030020;28;19924;-67
2022/01/01 09:25:38;;;;;;;;;;;20.40;56.90;;;;;;5035926;28;19913;-68
2022/01/01 09:28:04;;;;;;;;;;;20.40;56.90;;;;;;5047188;28;19909;-67
2022/01/01 09:30:29;;;;;;;;;;;20.40;57.00;;;;;;5032581;28;19916;-66
2022/01/01 09:32:55;;;;;;;;;;;20.40;57.00;;;;;;5045085;28;19909;-66
2022/01/01 09:35:20;;;;;;;;;;;20.40;57.00;;;;;;5041594;28;20412;-69
2022/01/01 09:37:46;;;;;;;;;;;20.40;57.00;;;;;;5039221;28;19932;-68
2022/01/01 09:40:12;;;;;;;;;;;20.40;57.00;;;;;;5041808;28;19956;-65
2022/01/01 09:42:39;;;;;;;;;;;20.40;56.90;;;;;;5041160;28;19919;-67
2022/01/01 09:45:05;;;;;;;;;;;20.40;56.90;;;;;;5043115;28;19959;-68
2022/01/01 09:47:31;;;;;;;;;;;20.40;56.90;;;;;;5045760;28;19912;-66
2022/01/01 09:49:56;;;;;;;;;;;20.40;56.80;;;;;;5042447;28;19916;-66
2022/01/01 09:52:22;;;;;;;;;;;20.40;56.80;;;;;;5043196;28;19924;-67
2022/01/01 09:54:47;;;;;;;;;;;20.40;56.70;;;;;;5042831;28;19928;-66
2022/01/01 09:57:13;;;;;;;;;;;20.50;56.70;;;;;;5040674;28;19913;-69
2022/01/01 09:59:39;;;;;;;;;;;20.50;56.70;;;;;;5045255;28;19912;-68
2022/01/01 10:02:04;;;;;;;;;;;20.50;56.70;;;;;;5036488;28;20356;-67
2022/01/01 10:04:41;;;;;;;;;;;20.50;56.60;;;;;;5038836;28;19908;-65
2022/01/01 10:07:06;;;;;;;;;;;20.50;56.70;;;;;;5038095;28;20697;-67
2022/01/01 10:09:33;;;;;;;;;;;20.50;56.70;;;;;;5039918;28;19917;-68
2022/01/01 10:11:58;;;;;;;;;;;20.50;56.60;;;;;;5035906;28;19905;-69
2022/01/01 10:14:38;;;;;;;;;;;20.50;56.60;;;;;;5040535;28;19913;-67
2022/01/01 10:17:12;;;;;;;;;;;20.50;56.70;;;;;;5037957;28;19916;-68
2022/01/01 10:19:38;;;;;;;;;;;20.50;56.60;;;;;;5037235;28;19909;-67
2022/01/01 10:22:06;;;;;;;;;;;20.50;56.60;;;;;;5038831;28;19920;-67
2022/01/01 10:24:50;;;;;;;;;;;20.50;56.60;;;;;;5039378;28;19925;-66
2022/01/01 10:30:00;;;;;;;;;;;20.60;56.70;;;;;;5032432;28;19923;-68
2022/01/01 10:32:25;;;;;;;;;;;20.60;56.70;;;;;;5038641;28;20284;-69
2022/01/01 10:34:51;;;;;;;;;;;20.60;56.70;;;;;;5040568;28;19912;-66
2022/01/01 10:37:16;;;;;;;;;;;20.60;56.70;;;;;;5043078;28;20074;-68
2022/01/01 10:39:49;;;;;;;;;;;20.60;56.70;;;;;;5033155;28;19930;-67
2022/01/01 10:42:14;;;;;;;;;;;20.60;56.70;;;;;;5037307;28;20279;-68
2022/01/01 10:44:41;;;;;;;;;;;20.60;56.70;;;;;;5039164;28;19916;-68
2022/01/01 10:47:16;;;;;;;;;;;20.60;56.70;;;;;;5037374;28;19959;-64
2022/01/01 10:52:12;;;;;;;;;;;20.60;56.70;;;;;;5036310;28;19917;-64
2022/01/01 10:54:38;;;;;;;;;;;20.60;56.70;;;;;;5035309;28;20119;-66
2022/01/01 10:57:07;;;;;;;;;;;20.70;56.80;;;;;;5039702;28;19998;-66
2022/01/01 10:59:36;;;;;;;;;;;20.60;56.80;;;;;;5040081;28;20752;-66
2022/01/01 11:02:05;;;;;;;;;;;20.70;56.90;;;;;;5036665;28;20448;-66
2022/01/01 11:04:32;;;;;;;;;;;20.70;56.90;;;;;;5036749;28;20007;-67
2022/01/01 11:06:58;;;;;;;;;;;20.70;56.90;;;;;;5039020;28;19945;-67
2022/01/01 11:09:23;;;;;;;;;;;20.70;56.90;;;;;;5037740;28;19913;-65
2022/01/01 11:11:49;;;;;;;;;;;20.70;56.80;;;;;;5041179;28;19928;-67
2022/01/01 11:14:15;;;;;;;;;;;20.70;56.80;;;;;;5037873;28;19940;-66
2022/01/01 11:16:42;;;;;;;;;;;20.70;56.80;;;;;;5054013;28;20020;-66
2022/01/01 11:19:07;;;;;;;;;;;20.70;57.40;;;;;;5036165;28;19931;-68
2022/01/01 11:21:33;;;;;;;;;;;20.70;56.90;;;;;;5037518;28;19913;-66
2022/01/01 11:24:00;;;;;;;;;;;20.80;56.90;;;;;;5036856;28;19955;-68
2022/01/01 11:26:26;;;;;;;;;;;20.80;56.90;;;;;;5040142;28;19915;-66
2022/01/01 11:28:51;;;;;;;;;;;20.80;57.40;;;;;;5043053;28;19916;-67
2022/01/01 11:31:18;;;;;;;;;;;20.80;56.90;;;;;;5040334;28;19940;-68
2022/01/01 11:33:49;;;;;;;;;;;20.80;56.90;;;;;;5042628;28;20464;-66
2022/01/01 11:36:22;;;;;;;;;;;20.80;56.90;;;;;;5034549;28;19920;-67
2022/01/01 11:38:48;;;;;;;;;;;20.80;56.90;;;;;;5038454;28;19998;-68
2022/01/01 11:41:15;;;;;;;;;;;20.80;56.90;;;;;;5039406;28;19916;-66
2022/01/01 11:43:43;;;;;;;;;;;20.90;57.00;;;;;;5039795;28;20616;-64
2022/01/01 11:46:12;;;;;;;;;;;20.80;56.90;;;;;;5039593;28;19913;-65
2022/01/01 11:48:41;;;;;;;;;;;20.90;57.00;;;;;;5043177;28;19977;-64
2022/01/01 11:51:29;;;;;;;;;;;20.90;57.00;;;;;;5034124;28;20249;-66
2022/01/01 11:54:09;;;;;;;;;;;20.90;57.00;;;;;;5030881;28;20316;-68
2022/01/01 11:56:50;;;;;;;;;;;20.90;57.00;;;;;;5035582;28;22202;-63
2022/01/01 11:59:22;;;;;;;;;;;20.90;57.00;;;;;;5034236;28;19917;-65
2022/01/01 12:01:48;;;;;;;;;;;20.90;57.00;;;;;;5035028;28;19925;-68
2022/01/01 12:04:31;;;;;;;;;;;20.90;56.90;;;;;;5035525;28;21567;-64
2022/01/01 12:07:13;;;;;;;;;;;21.00;57.00;;;;;;5034277;28;19912;-68
2022/01/01 12:09:57;;;;;;;;;;;21.00;57.00;;;;;;5036179;28;19959;-67
2022/01/01 12:12:35;;;;;;;;;;;21.00;57.50;;;;;;5034892;28;19913;-68
2022/01/01 12:15:00;;;;;;;;;;;21.00;57.00;;;;;;5036277;28;20362;-66
2022/01/01 12:17:26;;;;;;;;;;;21.00;57.00;;;;;;5033653;28;19921;-66
2022/01/01 12:19:54;;;;;;;;;;;21.00;57.00;;;;;;5038417;28;19916;-67
2022/01/01 12:22:23;;;;;;;;;;;21.10;57.00;;;;;;5033518;28;20012;-68
2022/01/01 12:24:52;;;;;;;;;;;21.00;56.90;;;;;;5033997;28;19966;-67
2022/01/01 12:27:17;;;;;;;;;;;21.10;56.90;;;;;;5034050;28;20609;-66
2022/01/01 12:29:43;;;;;;;;;;;21.10;56.90;;;;;;5034687;28;19916;-67
2022/01/01 12:32:09;;;;;;;;;;;21.10;56.90;;;;;;5038003;28;20798;-67
2022/01/01 12:34:36;;;;;;;;;;;21.10;56.90;;;;;;5035045;28;19920;-64
2022/01/01 12:37:07;;;;;;;;;;;21.10;56.90;;;;;;5030552;28;20380;-67
2022/01/01 12:39:51;;;;;;;;;;;21.10;56.80;;;;;;5036476;28;19913;-64
2022/01/01 12:42:26;;;;;;;;;;;21.10;56.80;;;;;;5033460;28;19919;-64
2022/01/01 12:44:55;;;;;;;;;;;21.20;56.80;;;;;;5029348;28;19952;-66
2022/01/01 12:47:20;;;;;;;;;;;21.10;56.70;;;;;;5040415;28;19912;-66
2022/01/01 12:49:46;;;;;;;;;;;21.20;56.80;;;;;;5041078;28;20375;-65
2022/01/01 12:52:13;;;;;;;;;;;21.20;56.80;;;;;;5040025;28;19932;-64
2022/01/01 12:54:42;;;;;;;;;;;21.20;56.80;;;;;;5036784;28;20023;-66
2022/01/01 12:57:07;;;;;;;;;;;21.20;56.80;;;;;;5038720;28;20396;-63
2022/01/01 12:59:33;;;;;;;;;;;21.20;56.70;;;;;;5039701;28;19912;-65
2022/01/01 13:02:00;;;;;;;;;;;21.20;56.70;;;;;;5038222;28;19924;-66
2022/01/01 13:04:27;;;;;;;;;;;21.20;56.80;;;;;;5036173;28;20011;-66
2022/01/01 13:06:54;;;;;;;;;;;21.20;56.70;;;;;;5035887;28;19913;-66
2022/01/01 13:09:21;;;;;;;;;;;21.20;56.60;;;;;;5041501;28;19912;-67
2022/01/01 13:11:48;;;;;;;;;;;21.20;56.60;;;;;;5035283;28;20751;-68
2022/01/01 13:14:15;;;;;;;;;;;21.20;56.60;;;;;;5048063;28;19920;-65
2022/01/01 13:16:41;;;;;;;;;;;21.30;56.60;;;;;;5037067;28;20003;-68
2022/01/01 13:19:07;;;;;;;;;;;21.30;56.60;;;;;;5039186;28;19919;-66
2022/01/01 13:21:33;;;;;;;;;;;21.30;56.60;;;;;;5041136;28;19917;-67
2022/01/01 13:23:58;;;;;;;;;;;21.30;56.60;;;;;;5031959;28;19942;-66
2022/01/01 13:26:24;;;;;;;;;;;21.30;56.50;;;;;;5042238;28;19924;-66
2022/01/01 13:28:50;;;;;;;;;;;21.30;56.50;;;;;;5040694;28;20013;-67
2022/01/01 13:31:15;;;;;;;;;;;21.30;56.50;;;;;;5039655;28;20579;-69
2022/01/01 13:33:45;;;;;;;;;;;21.40;56.50;;;;;;5038576;28;19975;-67
2022/01/01 13:36:11;;;;;;;;;;;21.30;56.50;;;;;;5040155;28;19924;-67
2022/01/01 13:38:36;;;;;;;;;;;21.40;56.50;;;;;;5038068;28;19917;-65
2022/01/01 13:41:04;;;;;;;;;;;21.40;56.60;;;;;;5037561;28;20003;-66
2022/01/01 13:43:31;;;;;;;;;;;21.40;57.00;;;;;;5034427;28;20417;-65
2022/01/01 13:46:10;;;;;;;;;;;21.40;56.50;;;;;;5040240;28;19999;-64
2022/01/01 13:48:49;;;;;;;;;;;21.40;56.50;;;;;;5035152;28;19960;-64
2022/01/01 13:51:17;;;;;;;;;;;21.40;56.50;;;;;;5038122;28;19917;-68
2022/01/01 13:53:43;;;;;;;;;;;21.40;56.50;;;;;;5036600;28;20290;-66
2022/01/01 13:56:13;;;;;;;;;;;21.40;56.50;;;;;;5036122;28;19924;-68
2022/01/01 13:58:43;;;;;;;;;;;21.40;56.40;;;;;;5036863;28;19917;-65
2022/01/01 14:01:09;;;;;;;;;;;21.40;56.40;;;;;;5038806;28;19936;-67
2022/01/01 14:03:35;;;;;;;;;;;21.40;56.40;;;;;;5040116;28;19912;-66
2022/01/01 14:06:00;;;;;;;;;;;21.40;56.40;;;;;;5039705;28;19913;-66
2022/01/01 14:08:27;;;;;;;;;;;21.40;56.40;;;;;;5037107;28;20230;-67
2022/01/01 14:10:56;;;;;;;;;;;21.40;56.40;;;;;;5035105;28;19931;-67
2022/01/01 14:13:25;;;;;;;;;;;21.40;56.40;;;;;;5038780;28;19916;-68
2022/01/01 14:15:51;;;;;;;;;;;21.40;56.40;;;;;;5034319;28;20431;-68
2022/01/01 14:18:25;;;;;;;;;;;21.40;56.40;;;;;;5035885;28;19905;-65
2022/01/01 14:20:52;;;;;;;;;;;21.40;56.40;;;;;;5038901;28;19916;-66
2022/01/01 14:23:23;;;;;;;;;;;21.50;56.40;;;;;;5031456;28;19924;-65